Time;durP1;ratioP1;P1;durP2;ratioP2;P2;SDS_P1;SDS_P2;PMS_P1;PMS_P2;Temp;Humidity;BMP_temperature;BMP_pressure;BME280_temperature;BME280_humidity;BME280_pressure;Samples;Min_cycle;Max_cycle;Signal;HPM_P1;HPM_P2
2022/09/07 00:00:33;;;;;;;7.53;5.18;;;18.10;99.90;;;;;;4994437;28;20069;-48
2022/09/07 00:02:59;;;;;;;5.80;4.97;;;18.10;99.90;;;;;;4994913;28;20030;-49
2022/09/07 00:05:27;;;;;;;8.43;5.60;;;18.10;99.90;;;;;;4994523;28;20034;-48
2022/09/07 00:07:53;;;;;;;5.60;5.00;;;18.20;99.90;;;;;;4994636;28;20039;-48
2022/09/07 00:10:18;;;;;;;5.60;4.97;;;18.20;99.90;;;;;;4994566;28;20487;-48
2022/09/07 00:12:44;;;;;;;6.60;4.68;;;18.20;99.90;;;;;;4994322;28;20117;-49
2022/09/07 00:15:11;;;;;;;6.88;5.82;;;18.10;99.90;;;;;;4994482;28;20106;-49
2022/09/07 00:17:38;;;;;;;7.15;6.15;;;18.20;99.90;;;;;;4994439;28;20439;-48
2022/09/07 00:20:05;;;;;;;7.15;5.40;;;18.30;99.90;;;;;;4994360;28;20032;-49
2022/09/07 00:22:32;;;;;;;5.95;5.40;;;18.30;99.90;;;;;;4994457;28;20535;-48
2022/09/07 00:24:57;;;;;;;7.15;5.40;;;18.20;99.90;;;;;;4994153;28;20025;-49
2022/09/07 00:27:23;;;;;;;6.05;5.50;;;18.20;99.90;;;;;;4994332;28;20121;-48
2022/09/07 00:29:49;;;;;;;8.27;5.43;;;18.20;99.90;;;;;;4994561;28;20022;-48
2022/09/07 00:32:14;;;;;;;7.03;5.50;;;18.20;99.90;;;;;;4993968;28;20392;-49
2022/09/07 00:34:40;;;;;;;8.25;5.57;;;18.10;99.90;;;;;;4994070;28;20070;-48
2022/09/07 00:37:06;;;;;;;6.60;5.97;;;18.20;99.90;;;;;;4993817;28;20545;-48
2022/09/07 00:39:32;;;;;;;7.28;6.03;;;18.20;99.90;;;;;;4994066;28;20046;-49
2022/09/07 00:41:58;;;;;;;7.63;5.65;;;18.20;99.90;;;;;;4994119;28;20113;-49
2022/09/07 00:44:42;;;;;;;9.85;6.18;;;18.30;99.90;;;;;;4994190;28;20109;-49
2022/09/07 00:47:17;;;;;;;7.78;5.97;;;18.20;99.90;;;;;;4993690;28;20038;-49
2022/09/07 00:49:46;;;;;;;6.85;6.03;;;18.10;99.90;;;;;;4993744;28;20026;-49
2022/09/07 00:52:13;;;;;;;8.40;6.72;;;18.00;99.90;;;;;;4993874;28;20422;-49
2022/09/07 00:54:57;;;;;;;8.90;6.97;;;17.90;99.90;;;;;;4993831;28;20495;-48
2022/09/07 00:57:23;;;;;;;10.20;6.55;;;17.80;99.90;;;;;;4993594;28;20559;-48
2022/09/07 00:59:52;;;;;;;7.60;6.32;;;17.70;99.90;;;;;;4994527;28;20105;-47
2022/09/07 01:02:18;;;;;;;9.00;6.55;;;17.60;99.90;;;;;;4993501;28;20027;-48
2022/09/07 01:04:48;;;;;;;7.18;6.57;;;17.50;99.90;;;;;;4993560;28;20494;-47
2022/09/07 01:07:14;;;;;;;9.95;7.78;;;17.40;99.90;;;;;;4993644;28;20104;-47
2022/09/07 01:09:41;;;;;;;9.88;7.97;;;17.30;99.90;;;;;;4993867;28;20030;-48
2022/09/07 01:12:08;;;;;;;16.45;8.35;;;17.30;99.90;;;;;;4993615;28;20034;-48
2022/09/07 01:14:42;;;;;;;9.27;8.13;;;17.40;99.90;;;;;;4993150;28;20034;-49
2022/09/07 01:17:53;;;;;;;11.27;9.10;;;17.40;99.90;;;;;;4993245;28;20057;-48
2022/09/07 01:20:44;;;;;;;11.00;8.38;;;17.40;99.90;;;;;;4993300;28;20030;-48
2022/09/07 01:23:22;;;;;;;11.65;8.98;;;17.40;99.90;;;;;;4993295;28;20487;-48
2022/09/07 01:26:04;;;;;;;11.73;8.68;;;17.40;99.90;;;;;;4992921;28;20411;-48
2022/09/07 01:28:32;;;;;;;9.37;8.40;;;17.40;99.90;;;;;;4993240;28;20078;-48
2022/09/07 01:31:21;;;;;;;10.60;8.95;;;17.50;99.90;;;;;;4993058;28;20038;-49
2022/09/07 01:33:59;;;;;;;12.77;10.25;;;17.60;99.90;;;;;;4993046;28;20049;-49
2022/09/07 01:36:53;;;;;;;10.93;9.27;;;17.70;99.90;;;;;;4993279;28;20109;-49
2022/09/07 01:39:23;;;;;;;12.93;8.90;;;17.70;99.90;;;;;;4991770;28;20117;-49
2022/09/07 01:42:00;;;;;;;12.00;9.25;;;17.70;99.90;;;;;;4992842;28;20410;-48
2022/09/07 01:44:50;;;;;;;10.57;9.15;;;17.70;99.90;;;;;;4992812;28;20034;-49
2022/09/07 01:47:30;;;;;;;9.80;8.80;;;17.70;99.90;;;;;;4992906;28;20067;-49
2022/09/07 01:50:00;;;;;;;10.73;9.32;;;17.60;99.90;;;;;;4993124;28;20034;-48
2022/09/07 01:52:35;;;;;;;11.90;9.50;;;17.60;99.90;;;;;;4993125;28;20387;-49
2022/09/07 01:55:17;;;;;;;10.18;8.98;;;17.60;99.90;;;;;;4992749;28;20487;-48
2022/09/07 01:57:50;;;;;;;10.80;8.80;;;17.60;99.90;;;;;;4992104;28;20058;-48
2022/09/07 02:00:18;;;;;;;16.33;10.43;;;17.40;99.90;;;;;;4992535;28;20026;-48
2022/09/07 02:02:51;;;;;;;11.13;9.68;;;17.40;99.90;;;;;;4992480;28;20502;-48
2022/09/07 02:05:22;;;;;;;13.77;10.07;;;17.50;99.90;;;;;;4992939;28;20022;-49
2022/09/07 02:07:59;;;;;;;10.93;9.68;;;17.50;99.90;;;;;;4992195;28;20026;-49
2022/09/07 02:10:37;;;;;;;11.48;9.85;;;17.60;99.90;;;;;;4992617;28;20092;-48
2022/09/07 02:13:12;;;;;;;11.95;9.93;;;17.70;99.90;;;;;;4992400;28;20527;-48
2022/09/07 02:15:52;;;;;;;10.10;9.10;;;17.70;99.90;;;;;;4992050;28;20088;-48
2022/09/07 02:18:20;;;;;;;11.65;9.60;;;17.60;99.90;;;;;;4992383;28;20037;-47
2022/09/07 02:20:49;;;;;;;11.55;9.48;;;17.40;99.90;;;;;;4991988;28;20049;-48
2022/09/07 02:23:21;;;;;;;13.15;9.13;;;17.30;99.90;;;;;;4991930;28;20101;-48
2022/09/07 02:26:02;;;;;;;11.20;9.73;;;17.30;99.90;;;;;;4992358;28;20452;-49
2022/09/07 02:28:32;;;;;;;11.90;10.27;;;17.20;99.90;;;;;;4992461;28;20049;-48
2022/09/07 02:30:58;;;;;;;14.73;10.73;;;17.20;99.90;;;;;;4991945;28;20026;-52
2022/09/07 02:33:24;;;;;;;15.23;11.43;;;17.20;99.90;;;;;;4991833;28;20542;-48
2022/09/07 02:35:50;;;;;;;15.15;11.70;;;17.40;99.90;;;;;;4992027;28;20022;-48
2022/09/07 02:38:17;;;;;;;12.90;10.15;;;17.50;99.90;;;;;;4992035;28;20042;-48
2022/09/07 02:40:42;;;;;;;12.30;9.85;;;17.50;99.90;;;;;;4991585;28;20030;-48
2022/09/07 02:43:10;;;;;;;12.18;9.80;;;17.40;99.90;;;;;;4992059;28;20110;-48
2022/09/07 02:45:47;;;;;;;12.52;10.65;;;17.40;99.90;;;;;;4991771;28;20085;-48
2022/09/07 02:48:38;;;;;;;15.13;10.88;;;17.30;99.90;;;;;;4992272;28;20463;-47
2022/09/07 02:51:30;;;;;;;13.57;12.18;;;17.20;99.90;;;;;;4991867;28;20030;-48
2022/09/07 02:54:17;;;;;;;16.33;12.73;;;17.20;99.90;;;;;;4991674;28;20039;-48
2022/09/07 02:57:20;;;;;;;17.13;15.05;;;17.30;99.90;;;;;;4991340;28;20054;-49
2022/09/07 03:00:07;;;;;;;16.85;13.70;;;17.50;99.90;;;;;;4992045;28;20077;-48
2022/09/07 03:02:45;;;;;;;16.20;13.02;;;17.60;99.90;;;;;;4991981;28;20030;-48
2022/09/07 03:05:28;;;;;;;13.38;11.98;;;17.40;99.90;;;;;;4991766;28;20015;-48
2022/09/07 03:07:58;;;;;;;17.20;13.10;;;17.20;99.90;;;;;;4991600;28;20030;-48
2022/09/07 03:10:23;;;;;;;17.83;14.20;;;17.10;99.90;;;;;;4994085;28;20026;-49
2022/09/07 03:12:50;;;;;;;16.75;14.70;;;17.30;99.90;;;;;;4995424;28;20057;-49
2022/09/07 03:15:19;;;;;;;20.58;14.35;;;17.30;99.90;;;;;;4995628;28;20030;-49
2022/09/07 03:17:45;;;;;;;19.33;14.50;;;17.30;99.90;;;;;;4995285;28;20042;-50
2022/09/07 03:20:11;;;;;;;16.65;14.85;;;17.20;99.90;;;;;;4994359;28;20022;-49
2022/09/07 03:22:37;;;;;;;20.25;14.50;;;17.20;99.90;;;;;;4995385;28;20041;-49
2022/09/07 03:25:03;;;;;;;20.30;16.40;;;17.20;99.90;;;;;;4995314;28;20026;-49
2022/09/07 03:27:32;;;;;;;25.42;17.30;;;17.20;99.90;;;;;;4995224;28;20034;-49
2022/09/07 03:29:58;;;;;;;19.52;15.68;;;17.20;99.90;;;;;;4995630;28;20085;-49
2022/09/07 03:32:28;;;;;;;16.70;14.98;;;17.20;99.90;;;;;;4995701;28;20086;-49
2022/09/07 03:34:53;;;;;;;21.40;15.88;;;17.10;99.90;;;;;;4995418;28;20475;-48
2022/09/07 03:37:19;;;;;;;19.58;15.70;;;17.00;99.90;;;;;;4995325;28;20041;-49
2022/09/07 03:39:45;;;;;;;20.02;16.40;;;17.00;99.90;;;;;;4995188;28;20034;-48
2022/09/07 03:42:10;;;;;;;19.73;15.48;;;17.00;99.90;;;;;;4995033;28;20490;-48
2022/09/07 03:44:36;;;;;;;23.50;17.45;;;17.00;99.90;;;;;;4994971;28;20023;-48
2022/09/07 03:47:02;;;;;;;21.77;17.70;;;17.00;99.90;;;;;;4995002;28;20125;-49
2022/09/07 03:49:27;;;;;;;23.83;20.40;;;17.00;99.90;;;;;;4995270;28;20038;-48
2022/09/07 03:51:53;;;;;;;23.52;21.10;;;17.00;99.90;;;;;;4994787;28;20046;-50
2022/09/07 03:54:18;;;;;;;24.63;20.52;;;17.00;99.90;;;;;;4993408;28;20022;-49
2022/09/07 03:56:44;;;;;;;23.85;20.13;;;17.10;99.90;;;;;;4994451;28;20410;-49
2022/09/07 03:59:10;;;;;;;22.13;19.83;;;17.10;99.90;;;;;;4995081;28;20110;-49
2022/09/07 04:01:35;;;;;;;20.73;18.33;;;17.20;99.90;;;;;;4994684;28;20129;-48
2022/09/07 04:04:01;;;;;;;22.13;18.92;;;17.10;99.90;;;;;;4994846;28;20476;-48
2022/09/07 04:06:28;;;;;;;27.90;19.65;;;17.10;99.90;;;;;;4994912;28;20105;-49
2022/09/07 04:08:55;;;;;;;23.33;19.10;;;17.10;99.90;;;;;;4994790;28;20049;-49
2022/09/07 04:11:21;;;;;;;24.88;20.35;;;17.10;99.90;;;;;;4994369;28;20030;-49
2022/09/07 04:13:47;;;;;;;24.80;21.42;;;17.20;99.90;;;;;;4993151;28;20093;-49
2022/09/07 04:16:20;;;;;;;25.52;20.30;;;17.30;99.90;;;;;;4994419;28;20125;-49
2022/09/07 04:18:46;;;;;;;;;;;17.40;99.90;;;;;;4994806;28;20034;-49
2022/09/07 04:21:12;;;;;;;25.67;20.23;;;17.40;99.90;;;;;;4993756;28;19918;-49
2022/09/07 04:23:40;;;;;;;26.60;20.40;;;17.30;99.90;;;;;;4994910;28;20027;-53
2022/09/07 04:26:05;;;;;;;22.08;19.67;;;17.40;99.90;;;;;;4994298;28;20019;-49
2022/09/07 04:28:31;;;;;;;24.23;19.65;;;17.40;99.90;;;;;;4994261;28;20038;-49
2022/09/07 04:31:00;;;;;;;22.25;19.88;;;17.30;99.90;;;;;;4994633;28;20027;-49
2022/09/07 04:33:26;;;;;;;22.30;18.63;;;17.40;99.90;;;;;;4994453;28;20026;-48
2022/09/07 04:35:52;;;;;;;23.75;19.77;;;17.40;99.90;;;;;;4993989;28;20451;-48
2022/09/07 04:38:17;;;;;;;25.05;20.60;;;17.40;99.90;;;;;;4994269;28;20045;-48
2022/09/07 04:40:43;;;;;;;25.08;20.70;;;17.40;99.90;;;;;;4993903;28;20081;-48
2022/09/07 04:43:11;;;;;;;25.45;19.63;;;17.40;99.90;;;;;;4993939;28;20583;-48
2022/09/07 04:45:38;;;;;;;23.08;20.60;;;17.40;99.90;;;;;;4994543;28;20074;-49
2022/09/07 04:48:04;;;;;;;24.02;20.05;;;17.30;99.90;;;;;;4994676;28;20034;-48
2022/09/07 04:50:30;;;;;;;24.10;20.00;;;17.30;99.90;;;;;;4993750;28;20054;-48
2022/09/07 04:52:56;;;;;;;25.45;21.30;;;17.30;99.90;;;;;;4993516;28;20059;-48
2022/09/07 04:55:21;;;;;;;22.70;20.25;;;17.20;99.90;;;;;;4993767;28;20145;-49
2022/09/07 04:57:50;;;;;;;24.60;20.95;;;17.30;99.90;;;;;;4993895;28;20178;-49
2022/09/07 05:00:16;;;;;;;24.33;20.38;;;17.10;99.90;;;;;;4993616;28;20487;-50
2022/09/07 05:02:41;;;;;;;23.00;19.10;;;17.20;99.90;;;;;;4993502;28;20062;-49
2022/09/07 05:05:07;;;;;;;23.40;18.55;;;17.10;99.90;;;;;;4993709;28;20388;-49
2022/09/07 05:07:33;;;;;;;22.75;18.58;;;17.10;99.90;;;;;;4993211;28;20034;-48
2022/09/07 05:09:59;;;;;;;23.08;19.15;;;17.00;99.90;;;;;;4993731;28;20034;-48
2022/09/07 05:12:24;;;;;;;27.35;19.88;;;17.00;99.90;;;;;;4993744;28;20035;-49
2022/09/07 05:14:50;;;;;;;22.83;19.90;;;17.00;99.90;;;;;;4993319;28;20029;-49
2022/09/07 05:17:17;;;;;;;27.65;19.50;;;17.00;99.90;;;;;;4993188;28;20085;-49
2022/09/07 05:19:43;;;;;;;26.02;21.10;;;16.90;99.90;;;;;;4993544;28;20357;-49
2022/09/07 05:22:09;;;;;;;25.83;20.13;;;16.90;99.90;;;;;;4993279;28;20034;-49
2022/09/07 05:24:35;;;;;;;25.33;19.73;;;16.80;99.90;;;;;;4993576;28;20446;-47
2022/09/07 05:27:02;;;;;;;30.50;20.63;;;16.80;99.90;;;;;;4993408;28;20030;-49
2022/09/07 05:29:28;;;;;;;26.27;20.88;;;16.80;99.90;;;;;;4993569;28;20084;-49
2022/09/07 05:31:54;;;;;;;25.45;19.33;;;16.70;99.90;;;;;;4992276;28;20034;-49
2022/09/07 05:34:20;;;;;;;25.70;20.15;;;16.70;99.90;;;;;;4993091;28;20030;-48
2022/09/07 05:36:45;;;;;;;27.15;20.55;;;16.70;99.90;;;;;;4993286;28;20027;-47
2022/09/07 05:39:11;;;;;;;25.35;19.55;;;16.70;99.90;;;;;;4992974;28;20085;-47
2022/09/07 05:41:36;;;;;;;27.98;19.98;;;16.70;99.90;;;;;;4992471;28;20415;-49
2022/09/07 05:44:03;;;;;;;27.25;20.45;;;16.60;99.90;;;;;;4992562;28;20057;-49
2022/09/07 05:46:29;;;;;;;26.10;19.73;;;16.60;99.90;;;;;;4992353;28;20475;-49
2022/09/07 05:48:55;;;;;;;25.17;19.52;;;16.60;99.90;;;;;;4992992;28;20029;-46
2022/09/07 05:51:21;;;;;;;26.27;19.90;;;16.50;99.90;;;;;;4992822;28;20387;-47
2022/09/07 05:53:47;;;;;;;31.33;20.27;;;16.50;99.90;;;;;;4992577;28;20034;-46
2022/09/07 05:56:13;;;;;;;30.15;20.50;;;16.50;99.90;;;;;;4991845;28;20066;-47
2022/09/07 05:58:39;;;;;;;28.38;20.05;;;16.50;99.90;;;;;;4988142;28;20037;-47
2022/09/07 06:01:06;;;;;;;29.45;20.65;;;16.50;99.90;;;;;;4984833;28;20114;-48
2022/09/07 06:03:34;;;;;;;27.83;20.10;;;16.50;99.90;;;;;;4990379;28;20030;-48
2022/09/07 06:06:01;;;;;;;28.65;20.70;;;16.50;99.90;;;;;;4985705;28;20446;-48
2022/09/07 06:08:28;;;;;;;23.90;19.20;;;16.60;99.90;;;;;;4970828;28;20391;-48
2022/09/07 06:10:53;;;;;;;27.50;19.95;;;16.60;99.90;;;;;;4970996;28;20174;-48
2022/09/07 06:13:19;;;;;;;25.42;19.75;;;16.70;99.90;;;;;;4975866;28;20045;-49
2022/09/07 06:15:44;;;;;;;33.97;20.20;;;16.70;99.90;;;;;;4980938;28;20030;-47
2022/09/07 06:18:10;;;;;;;29.27;19.55;;;16.70;99.90;;;;;;4976027;28;20046;-48
2022/09/07 06:20:36;;;;;;;31.02;18.58;;;16.80;99.90;;;;;;4975882;28;20077;-49
2022/09/07 06:23:01;;;;;;;28.42;18.50;;;16.80;99.90;;;;;;4969023;28;20046;-49
2022/09/07 06:25:27;;;;;;;27.63;18.63;;;16.90;99.90;;;;;;4976145;28;20089;-48
2022/09/07 06:27:53;;;;;;;30.02;17.27;;;17.10;99.90;;;;;;4972645;28;20450;-48
2022/09/07 06:30:19;;;;;;;26.55;17.02;;;17.10;99.90;;;;;;4980020;28;20042;-48
2022/09/07 06:32:45;;;;;;;27.33;16.90;;;17.20;99.90;;;;;;4979506;28;20458;-48
2022/09/07 06:35:11;;;;;;;30.75;18.23;;;17.30;99.90;;;;;;4978151;28;20157;-48
2022/09/07 06:37:37;;;;;;;21.33;16.55;;;17.40;99.90;;;;;;4984619;28;20049;-47
2022/09/07 06:40:04;;;;;;;22.70;17.42;;;17.50;99.90;;;;;;4983175;28;20039;-48
2022/09/07 06:42:29;;;;;;;26.35;17.23;;;17.50;99.90;;;;;;4977063;28;20042;-48
2022/09/07 06:44:55;;;;;;;28.48;17.05;;;17.60;99.90;;;;;;4986862;28;20031;-49
2022/09/07 06:47:20;;;;;;;27.50;16.42;;;17.60;99.90;;;;;;4983624;28;20090;-47
2022/09/07 06:49:46;;;;;;;24.33;16.35;;;17.70;99.90;;;;;;4977878;28;20113;-47
2022/09/07 06:52:11;;;;;;;22.75;16.42;;;17.80;99.90;;;;;;4978293;28;20037;-49
2022/09/07 06:54:38;;;;;;;22.38;15.57;;;18.00;99.90;;;;;;4980046;28;20169;-48
2022/09/07 06:57:07;;;;;;;22.83;15.40;;;18.10;99.90;;;;;;4975881;28;20366;-48
2022/09/07 06:59:33;;;;;;;21.23;14.73;;;18.20;99.90;;;;;;4977155;28;20042;-48
2022/09/07 07:01:59;;;;;;;26.30;14.02;;;18.40;99.90;;;;;;4981777;28;20041;-49
2022/09/07 07:04:25;;;;;;;24.98;14.60;;;18.50;99.90;;;;;;4971627;28;20659;-49
2022/09/07 07:06:50;;;;;;;15.85;12.85;;;18.50;99.90;;;;;;4973907;28;20026;-52
2022/09/07 07:09:16;;;;;;;17.83;13.23;;;18.70;99.90;;;;;;4978912;28;20014;-52
2022/09/07 07:11:43;;;;;;;17.67;10.57;;;18.90;99.90;;;;;;4976866;28;20129;-52
2022/09/07 07:14:14;;;;;;;19.70;10.82;;;19.00;99.90;;;;;;4977955;28;20036;-52
2022/09/07 07:16:39;;;;;;;25.95;11.13;;;19.10;99.90;;;;;;4972119;28;20474;-49
2022/09/07 07:19:05;;;;;;;14.80;9.10;;;19.00;99.90;;;;;;4976101;28;20092;-49
2022/09/07 07:21:31;;;;;;;20.70;9.88;;;19.20;99.90;;;;;;4975670;28;20038;-51
2022/09/07 07:23:56;;;;;;;13.43;8.50;;;19.40;99.90;;;;;;4970672;28;20088;-50
2022/09/07 07:26:26;;;;;;;15.40;9.25;;;19.30;99.90;;;;;;4974188;28;20537;-50
2022/09/07 07:28:54;;;;;;;11.20;7.50;;;19.40;99.90;;;;;;4972369;28;20023;-50
2022/09/07 07:31:23;;;;;;;13.50;6.68;;;19.60;99.90;;;;;;4976317;28;20030;-49
2022/09/07 07:33:51;;;;;;;10.85;7.07;;;20.00;99.90;;;;;;4974948;28;20491;-49
2022/09/07 07:36:25;;;;;;;14.98;7.70;;;20.10;99.90;;;;;;4975409;28;20037;-49
2022/09/07 07:38:53;;;;;;;14.63;7.22;;;20.30;99.90;;;;;;4981849;28;20038;-49
2022/09/07 07:41:21;;;;;;;9.70;6.32;;;20.60;99.90;;;;;;4973797;28;20057;-50
2022/09/07 07:43:51;;;;;;;14.05;7.50;;;21.10;99.90;;;;;;4974571;28;20039;-53
2022/09/07 07:46:17;;;;;;;10.90;7.00;;;21.50;99.90;;;;;;4970539;28;20039;-52
2022/09/07 07:48:46;;;;;;;12.23;5.90;;;21.80;99.90;;;;;;4974190;28;20037;-53
2022/09/07 07:51:12;;;;;;;10.02;5.97;;;22.30;99.90;;;;;;4975278;28;20038;-52
2022/09/07 07:53:40;;;;;;;8.45;5.65;;;22.20;99.90;;;;;;4978162;28;20046;-52
2022/09/07 07:56:07;;;;;;;14.02;5.97;;;22.40;99.90;;;;;;4971894;28;20105;-52
2022/09/07 07:58:34;;;;;;;9.30;5.53;;;22.30;99.90;;;;;;4976132;28;20038;-52
2022/09/07 08:01:02;;;;;;;10.18;5.93;;;22.30;99.90;;;;;;4969630;28;20383;-53
2022/09/07 08:03:28;;;;;;;8.50;4.97;;;22.40;99.90;;;;;;4977995;28;20088;-52
2022/09/07 08:05:54;;;;;;;8.65;4.72;;;22.90;99.90;;;;;;4976789;28;20676;-52
2022/09/07 08:08:21;;;;;;;8.85;5.38;;;23.00;99.90;;;;;;4977093;28;20121;-52
2022/09/07 08:10:48;;;;;;;9.95;5.35;;;23.00;99.90;;;;;;4975036;28;20030;-53
2022/09/07 08:13:15;;;;;;;10.35;4.80;;;22.90;99.90;;;;;;4973151;28;20247;-53
2022/09/07 08:15:44;;;;;;;8.27;4.30;;;23.40;99.90;;;;;;4964080;28;20041;-53
2022/09/07 08:18:14;;;;;;;6.65;4.00;;;23.30;99.90;;;;;;4971357;28;20499;-53
2022/09/07 08:20:40;;;;;;;8.23;4.40;;;23.40;99.90;;;;;;4974016;28;20061;-53
2022/09/07 08:23:07;;;;;;;8.65;3.80;;;23.50;99.90;;;;;;4973991;28;20030;-53
2022/09/07 08:25:33;;;;;;;6.93;3.78;;;24.10;99.90;;;;;;4976740;28;20062;-53
2022/09/07 08:27:59;;;;;;;8.68;3.13;;;24.70;99.90;;;;;;4972170;28;20060;-53
2022/09/07 08:30:25;;;;;;;9.35;4.03;;;25.10;99.90;;;;;;4966942;28;20042;-54
2022/09/07 08:32:50;;;;;;;8.50;3.38;;;25.40;99.90;;;;;;4975522;28;20038;-53
2022/09/07 08:35:16;;;;;;;6.10;2.80;;;25.00;99.90;;;;;;4976965;28;20178;-54
2022/09/07 08:37:42;;;;;;;5.93;3.08;;;25.20;99.90;;;;;;4977506;28;20298;-54
2022/09/07 08:40:15;;;;;;;7.22;2.85;;;25.10;99.90;;;;;;4985697;28;20038;-53
2022/09/07 08:42:54;;;;;;;4.40;2.67;;;25.20;99.90;;;;;;4982250;28;20038;-53
2022/09/07 08:45:28;;;;;;;5.88;2.50;;;25.10;99.90;;;;;;4975780;28;20076;-53
2022/09/07 08:47:54;;;;;;;6.43;2.58;;;24.50;99.90;;;;;;4980511;28;20161;-49
2022/09/07 08:50:28;;;;;;;6.40;2.60;;;24.30;99.90;;;;;;4985012;28;20155;-49
2022/09/07 08:53:15;;;;;;;5.78;2.50;;;23.90;99.90;;;;;;4982328;28;20683;-49
2022/09/07 08:55:52;;;;;;;6.75;2.40;;;24.20;99.90;;;;;;4981857;28;20034;-49
2022/09/07 08:58:31;;;;;;;9.35;2.30;;;24.00;99.90;;;;;;4979702;28;20042;-48
2022/09/07 09:00:57;;;;;;;3.78;1.98;;;24.10;99.90;;;;;;4981188;28;20049;-50
2022/09/07 09:03:32;;;;;;;5.88;2.20;;;24.10;99.90;;;;;;4981926;28;20037;-49
2022/09/07 09:06:27;;;;;;;5.88;2.00;;;24.10;99.90;;;;;;4982421;28;20038;-50
2022/09/07 09:09:12;;;;;;;4.72;2.20;;;24.40;99.90;;;;;;4984502;28;20053;-50
2022/09/07 09:12:05;;;;;;;8.52;2.47;;;24.40;99.90;;;;;;4972047;28;20053;-48
2022/09/07 09:14:36;;;;;;;9.02;2.42;;;24.50;99.90;;;;;;4979906;28;20106;-48
2022/09/07 09:17:32;;;;;;;5.38;2.22;;;24.90;99.90;;;;;;4981817;28;20048;-48
2022/09/07 09:20:25;;;;;;;7.00;1.83;;;24.70;99.90;;;;;;4979603;28;20037;-49
2022/09/07 09:22:59;;;;;;;7.75;1.83;;;24.10;99.90;;;;;;4980208;28;20033;-50
2022/09/07 09:25:32;;;;;;;8.27;2.15;;;23.90;99.90;;;;;;4975216;28;20073;-49
2022/09/07 09:27:58;;;;;;;10.23;2.60;;;23.50;99.90;;;;;;4978992;28;20065;-47
2022/09/07 09:30:24;;;;;;;6.80;2.13;;;23.60;99.90;;;;;;4977041;28;20462;-47
2022/09/07 09:32:51;;;;;;;4.53;1.80;;;24.00;99.90;;;;;;4980301;28;20041;-48
2022/09/07 09:35:37;;;;;;;6.10;1.92;;;24.40;99.90;;;;;;4974875;28;20026;-49
2022/09/07 09:38:02;;;;;;;5.55;2.22;;;24.40;99.90;;;;;;4980384;28;20038;-49
2022/09/07 09:40:33;;;;;;;6.20;1.90;;;24.40;99.90;;;;;;4976889;28;20480;-49
2022/09/07 09:43:14;;;;;;;6.30;1.95;;;24.60;99.90;;;;;;4977454;28;20030;-49
2022/09/07 09:45:45;;;;;;;6.65;1.90;;;24.40;99.90;;;;;;4974373;28;20679;-49
2022/09/07 09:48:19;;;;;;;11.40;2.50;;;24.30;99.90;;;;;;4973598;28;20054;-49
2022/09/07 09:50:49;;;;;;;5.78;1.95;;;24.10;99.90;;;;;;4977508;28;20068;-49
2022/09/07 09:53:26;;;;;;;7.03;1.27;;;24.30;99.90;;;;;;4974700;28;20042;-49
2022/09/07 09:55:53;;;;;;;9.35;1.95;;;23.90;99.90;;;;;;4973910;28;20376;-49
2022/09/07 09:58:39;;;;;;;8.18;1.98;;;23.70;99.90;;;;;;4974895;28;20397;-49
2022/09/07 10:01:31;;;;;;;8.95;2.00;;;23.50;99.90;;;;;;4970341;28;20070;-49
2022/09/07 10:04:16;;;;;;;12.02;1.98;;;23.80;99.90;;;;;;4974732;28;20117;-50
2022/09/07 10:06:50;;;;;;;6.38;1.80;;;24.20;99.90;;;;;;4968577;28;20034;-50
2022/09/07 10:09:20;;;;;;;10.13;1.73;;;24.60;99.90;;;;;;4968712;28;20661;-49
2022/09/07 10:11:50;;;;;;;7.05;1.80;;;24.60;99.90;;;;;;4975013;28;20106;-49
2022/09/07 10:14:30;;;;;;;8.15;3.53;;;24.90;99.90;;;;;;4970459;28;20037;-49
2022/09/07 10:16:57;;;;;;;18.50;5.85;;;24.80;99.90;;;;;;4975668;28;20060;-50
2022/09/07 10:19:33;;;;;;;7.32;2.30;;;24.60;99.90;;;;;;4972626;28;20022;-49
2022/09/07 10:22:02;;;;;;;6.60;1.70;;;24.90;99.90;;;;;;4964026;28;20344;-50
2022/09/07 10:24:35;;;;;;;11.63;2.35;;;25.30;99.90;;;;;;4978675;28;20026;-50
2022/09/07 10:27:18;;;;;;;6.30;1.90;;;25.50;99.90;;;;;;4974710;28;20045;-50
2022/09/07 10:29:44;;;;;;;7.57;1.98;;;25.50;99.90;;;;;;4979333;28;20514;-50
2022/09/07 10:32:12;;;;;;;7.32;1.90;;;25.30;99.90;;;;;;4973595;28;20383;-50
2022/09/07 10:34:58;;;;;;;7.93;2.10;;;25.90;99.90;;;;;;4980382;28;20035;-50
2022/09/07 10:37:42;;;;;;;10.57;2.05;;;25.10;99.90;;;;;;4977504;28;20041;-49
2022/09/07 10:40:09;;;;;;;10.45;2.10;;;25.10;99.90;;;;;;4979122;28;20041;-49
2022/09/07 10:42:41;;;;;;;7.85;2.08;;;25.10;99.90;;;;;;4978738;28;20042;-49
2022/09/07 10:45:36;;;;;;;7.93;2.03;;;25.00;99.90;;;;;;4987826;28;20018;-50
2022/09/07 10:48:26;;;;;;;9.02;2.00;;;25.00;99.90;;;;;;4985631;28;20068;-50
2022/09/07 10:51:03;;;;;;;9.57;2.28;;;24.90;99.90;;;;;;4987334;28;20022;-50
2022/09/07 10:53:51;;;;;;;6.53;1.73;;;24.90;99.90;;;;;;4983469;28;20044;-50
2022/09/07 10:56:32;;;;;;;8.25;2.00;;;24.30;99.90;;;;;;4982350;28;20034;-50
2022/09/07 10:59:19;;;;;;;8.35;1.83;;;24.00;99.90;;;;;;4987664;28;20093;-50
2022/09/07 11:01:59;;;;;;;8.30;1.80;;;24.30;99.90;;;;;;4982614;28;20474;-50
2022/09/07 11:04:34;;;;;;;8.98;1.90;;;24.20;99.90;;;;;;4983479;28;20030;-50
2022/09/07 11:07:28;;;;;;;7.20;1.90;;;24.10;99.90;;;;;;4989232;28;20038;-50
2022/09/07 11:09:54;;;;;;;5.43;1.63;;;24.40;99.90;;;;;;4987081;28;20030;-50
2022/09/07 11:12:36;;;;;;;6.63;2.22;;;24.80;99.90;;;;;;4987774;28;20444;-50
2022/09/07 11:15:11;;;;;;;9.20;1.90;;;24.70;99.90;;;;;;4986208;28;20418;-50
2022/09/07 11:17:43;;;;;;;7.75;2.10;;;24.40;99.90;;;;;;4982412;28;20027;-50
2022/09/07 11:20:24;;;;;;;;;;;25.10;99.90;;;;;;4982383;28;20577;-50
2022/09/07 11:22:52;;;;;;;8.35;1.65;;;25.10;99.90;;;;;;4986294;28;19921;-49
2022/09/07 11:25:28;;;;;;;8.13;1.55;;;24.90;99.90;;;;;;4986527;28;20022;-49
2022/09/07 11:28:00;;;;;;;6.93;1.70;;;25.10;99.90;;;;;;4985610;28;20041;-49
2022/09/07 11:30:30;;;;;;;10.32;1.90;;;25.20;99.90;;;;;;4989387;28;20034;-49
2022/09/07 11:33:41;;;;;;;7.15;2.13;;;25.60;99.90;;;;;;4984611;28;20045;-49
2022/09/07 11:36:13;;;;;;;7.45;1.75;;;26.40;99.90;;;;;;4982992;28;20034;-49
2022/09/07 11:38:44;;;;;;;;;;;26.10;99.90;;;;;;4994911;28;20031;-49
2022/09/07 11:41:35;;;;;;;7.05;2.20;;;26.20;99.90;;;;;;4986226;28;20385;-50
2022/09/07 11:44:03;;;;;;;11.95;2.38;;;26.10;99.90;;;;;;4985225;28;20607;-50
2022/09/07 11:46:31;;;;;;;6.20;2.05;;;26.30;99.90;;;;;;4991324;28;20030;-50
2022/09/07 11:48:58;;;;;;;6.80;1.85;;;26.70;99.90;;;;;;4989365;28;20534;-50
2022/09/07 11:51:51;;;;;;;6.13;1.58;;;26.60;99.90;;;;;;4992626;28;20038;-50
2022/09/07 11:54:49;;;;;;;7.57;1.70;;;26.20;99.90;;;;;;4995094;28;20361;-50
2022/09/07 11:57:40;;;;;;;8.00;1.67;;;26.10;99.90;;;;;;4991330;28;20129;-50
2022/09/07 12:00:15;;;;;;;4.97;1.33;;;26.30;99.90;;;;;;4987718;28;20034;-49
2022/09/07 12:02:55;;;;;;;7.20;2.20;;;26.30;99.90;;;;;;4994211;28;20030;-49
2022/09/07 12:05:24;;;;;;;6.15;1.52;;;26.20;99.90;;;;;;4990951;28;20030;-50
2022/09/07 12:07:58;;;;;;;8.63;2.03;;;25.90;99.90;;;;;;4994459;28;20507;-50
2022/09/07 12:10:39;;;;;;;8.23;1.98;;;26.00;99.90;;;;;;4992805;28;20491;-50
2022/09/07 12:13:23;;;;;;;9.77;1.83;;;26.40;99.90;;;;;;4993206;28;20042;-50
2022/09/07 12:16:12;;;;;;;10.38;2.10;;;25.80;99.90;;;;;;4992678;28;20129;-50
2022/09/07 12:19:11;;;;;;;6.05;1.58;;;25.10;99.90;;;;;;4985828;28;20038;-50
2022/09/07 12:21:39;;;;;;;8.77;1.75;;;25.40;99.90;;;;;;4993093;28;20132;-50
2022/09/07 12:24:32;;;;;;;7.55;2.00;;;25.90;99.90;;;;;;4994827;28;20030;-50
2022/09/07 12:26:59;;;;;;;7.18;2.05;;;25.90;99.90;;;;;;4994183;28;20030;-50
2022/09/07 12:29:28;;;;;;;13.20;2.78;;;25.70;99.90;;;;;;4993103;28;20050;-49
2022/09/07 12:31:56;;;;;;;12.27;1.95;;;25.30;99.90;;;;;;4994128;28;20041;-49
2022/09/07 12:34:30;;;;;;;10.50;2.42;;;25.70;99.90;;;;;;4993547;28;20069;-49
2022/09/07 12:37:01;;;;;;;13.15;2.40;;;25.70;99.90;;;;;;4992494;28;20030;-49
2022/09/07 12:39:31;;;;;;;6.43;1.85;;;25.30;99.90;;;;;;4990497;28;20121;-49
2022/09/07 12:42:08;;;;;;;10.52;2.30;;;25.10;99.90;;;;;;4988928;28;20038;-48
2022/09/07 12:44:35;;;;;;;7.25;1.92;;;25.10;99.90;;;;;;4992321;28;20379;-49
2022/09/07 12:47:11;;;;;;;7.65;2.08;;;25.40;99.90;;;;;;4991746;28;20430;-49
2022/09/07 12:49:48;;;;;;;8.25;1.95;;;25.80;99.90;;;;;;4992847;28;20034;-51
2022/09/07 12:52:39;;;;;;;7.70;1.30;;;26.60;99.90;;;;;;4991633;28;20031;-50
2022/09/07 12:55:23;;;;;;;5.80;1.50;;;26.70;99.90;;;;;;4992648;28;20023;-49
2022/09/07 12:58:04;;;;;;;6.00;1.70;;;26.10;99.90;;;;;;4990219;28;20046;-50
2022/09/07 13:01:02;;;;;;;6.75;1.50;;;26.00;99.90;;;;;;4993510;28;20034;-50